createdAt,value
2022-12-24T00:00:57.504Z,11.97
2022-12-24T00:01:57.382Z,12.00
2022-12-24T00:02:57.399Z,11.93
2022-12-24T00:03:57.194Z,11.93
2022-12-24T00:05:00.892Z,11.90
2022-12-24T00:05:57.031Z,11.78
2022-12-24T00:06:56.952Z,11.86
2022-12-24T00:07:56.864Z,11.86
2022-12-24T00:08:56.786Z,11.78
2022-12-24T00:09:56.730Z,11.89
2022-12-24T00:10:56.632Z,11.84
2022-12-24T00:11:56.542Z,11.83
2022-12-24T00:12:56.465Z,11.87
2022-12-24T00:13:56.383Z,11.75
2022-12-24T00:14:56.303Z,11.90
2022-12-24T00:15:56.248Z,11.94
2022-12-24T00:16:56.172Z,11.94
2022-12-24T00:17:56.063Z,11.94
2022-12-24T00:18:55.977Z,11.93
2022-12-24T00:19:55.896Z,11.97
2022-12-24T00:20:55.815Z,11.95
2022-12-24T00:21:55.781Z,11.98
2022-12-24T00:22:55.654Z,11.95
2022-12-24T00:23:55.575Z,11.95
2022-12-24T00:24:55.492Z,12.02
2022-12-24T00:25:55.440Z,11.93
2022-12-24T00:26:55.330Z,11.98
2022-12-24T00:27:55.248Z,12.13
2022-12-24T00:28:55.188Z,12.08
2022-12-24T00:29:55.094Z,12.05
2022-12-24T00:30:55.071Z,12.19
2022-12-24T00:31:54.923Z,12.06
2022-12-24T00:32:54.856Z,12.16
2022-12-24T00:33:54.763Z,12.09
2022-12-24T00:34:54.681Z,12.09
2022-12-24T00:35:54.604Z,12.06
2022-12-24T00:36:54.556Z,11.98
2022-12-24T00:37:54.442Z,11.97
2022-12-24T00:38:54.358Z,11.95
2022-12-24T00:39:54.280Z,12.00
2022-12-24T00:40:54.195Z,11.98
2022-12-24T00:41:54.242Z,12.00
2022-12-24T00:42:54.032Z,11.95
2022-12-24T00:43:53.952Z,11.94
2022-12-24T00:44:53.871Z,11.97
2022-12-24T00:45:53.830Z,12.05
2022-12-24T00:46:53.725Z,11.94
2022-12-24T00:47:53.631Z,12.08
2022-12-24T00:48:53.557Z,12.08
2022-12-24T00:49:53.471Z,12.08
2022-12-24T00:50:53.439Z,12.02
2022-12-24T00:51:53.318Z,12.12
2022-12-24T00:52:53.225Z,11.94
2022-12-24T00:53:53.151Z,12.03
2022-12-24T00:54:53.065Z,11.94
2022-12-24T00:55:52.984Z,12.00
2022-12-24T00:56:52.902Z,11.98
2022-12-24T00:57:52.839Z,12.00
2022-12-24T00:58:52.757Z,11.95
2022-12-24T00:59:52.959Z,12.02
2022-12-24T01:00:52.579Z,11.98
2022-12-24T01:01:52.832Z,12.06
2022-12-24T01:02:52.622Z,12.06
2022-12-24T01:03:52.444Z,12.00
2022-12-24T01:04:52.257Z,11.97
2022-12-24T01:05:52.174Z,12.03
2022-12-24T01:06:52.094Z,11.93
2022-12-24T01:07:52.036Z,12.00
2022-12-24T01:08:51.962Z,11.98
2022-12-24T01:09:51.852Z,11.97
2022-12-24T01:10:51.773Z,11.93
2022-12-24T01:11:51.687Z,12.05
2022-12-24T01:12:51.608Z,12.02
2022-12-24T01:13:51.560Z,12.02
2022-12-24T01:14:51.449Z,11.98
2022-12-24T01:15:51.387Z,11.94
2022-12-24T01:16:51.289Z,11.93
2022-12-24T01:17:51.235Z,11.89
2022-12-24T01:18:51.123Z,11.79
2022-12-24T01:19:51.113Z,11.83
2022-12-24T01:20:50.962Z,11.93
2022-12-24T01:21:50.880Z,12.00
2022-12-24T01:22:50.808Z,11.94
2022-12-24T01:23:50.727Z,11.95
2022-12-24T01:24:50.641Z,11.94
2022-12-24T01:25:50.558Z,11.94
2022-12-24T01:26:50.631Z,11.90
2022-12-24T01:27:50.397Z,11.90
2022-12-24T01:28:50.317Z,11.89
2022-12-24T01:29:50.258Z,11.87
2022-12-24T01:30:50.195Z,11.89
2022-12-24T01:31:50.084Z,11.94
2022-12-24T01:32:50.008Z,12.11
2022-12-24T01:33:49.951Z,12.08
2022-12-24T01:34:49.833Z,12.09
2022-12-24T01:35:49.762Z,12.13
2022-12-24T01:36:49.883Z,12.06
2022-12-24T01:37:49.593Z,12.12
2022-12-24T01:38:49.511Z,12.12
2022-12-24T01:39:49.427Z,12.12
2022-12-24T01:40:49.348Z,12.06
2022-12-24T01:41:49.274Z,12.11
2022-12-24T01:42:49.187Z,12.05
2022-12-24T01:43:49.117Z,12.05
2022-12-24T01:44:49.024Z,12.02
2022-12-24T01:45:49.039Z,12.21
2022-12-24T01:46:49.001Z,12.18
2022-12-24T01:47:48.791Z,12.12
2022-12-24T01:48:48.703Z,12.13
2022-12-24T01:49:48.636Z,12.09
2022-12-24T01:50:48.540Z,12.23
2022-12-24T01:51:48.460Z,12.26
2022-12-24T01:52:48.390Z,12.23
2022-12-24T01:53:48.358Z,12.13
2022-12-24T01:54:48.219Z,12.23
2022-12-24T01:55:48.145Z,12.11
2022-12-24T01:56:48.058Z,12.12
2022-12-24T01:57:47.977Z,12.09
2022-12-24T01:58:47.905Z,12.13
2022-12-24T01:59:47.835Z,12.16
2022-12-24T02:00:47.732Z,12.26
2022-12-24T02:01:47.831Z,12.21
2022-12-24T02:02:47.771Z,12.21
2022-12-24T02:03:47.593Z,12.23
2022-12-24T02:04:47.415Z,12.19
2022-12-24T02:05:47.338Z,12.21
2022-12-24T02:06:47.251Z,12.12
2022-12-24T02:07:47.178Z,12.16
2022-12-24T02:08:47.090Z,12.12
2022-12-24T02:09:47.011Z,12.06
2022-12-24T02:10:47.079Z,12.02
2022-12-24T02:11:46.849Z,11.98
2022-12-24T02:12:46.766Z,11.89
2022-12-24T02:13:46.731Z,11.84
2022-12-24T02:14:46.603Z,11.75
2022-12-24T02:15:46.546Z,11.69
2022-12-24T02:16:46.446Z,11.65
2022-12-24T02:17:46.390Z,11.71
2022-12-24T02:18:46.288Z,11.61
2022-12-24T02:19:46.203Z,11.51
2022-12-24T02:20:46.320Z,11.54
2022-12-24T02:21:46.039Z,11.39
2022-12-24T02:22:45.959Z,11.50
2022-12-24T02:23:45.877Z,11.53
2022-12-24T02:24:45.802Z,11.39
2022-12-24T02:25:45.718Z,11.36
2022-12-24T02:26:45.634Z,11.39
2022-12-24T02:27:45.555Z,11.39
2022-12-24T02:28:45.471Z,11.36
2022-12-24T02:29:45.406Z,11.36
2022-12-24T02:30:45.316Z,11.42
2022-12-24T02:31:45.301Z,11.49
2022-12-24T02:32:45.198Z,11.36
2022-12-24T02:33:45.111Z,11.47
2022-12-24T02:34:44.995Z,11.59
2022-12-24T02:35:44.911Z,11.54
2022-12-24T02:36:44.833Z,11.56
2022-12-24T02:37:44.751Z,11.59
2022-12-24T02:38:44.666Z,11.54
2022-12-24T02:39:44.580Z,11.57
2022-12-24T02:40:44.500Z,11.56
2022-12-24T02:41:44.419Z,11.54
2022-12-24T02:42:44.340Z,11.56
2022-12-24T02:43:44.261Z,11.59
2022-12-24T02:44:44.184Z,11.54
2022-12-24T02:45:44.092Z,11.60
2022-12-24T02:46:44.080Z,11.60
2022-12-24T02:47:43.934Z,11.60
2022-12-24T02:48:43.850Z,11.53
2022-12-24T02:49:43.849Z,11.69
2022-12-24T02:50:43.689Z,11.68
2022-12-24T02:51:43.608Z,11.69
2022-12-24T02:52:43.527Z,11.68
2022-12-24T02:53:43.446Z,11.54
2022-12-24T02:54:43.371Z,11.57
2022-12-24T02:55:43.285Z,11.56
2022-12-24T02:56:43.208Z,11.59
2022-12-24T02:57:43.121Z,11.57
2022-12-24T02:58:43.039Z,11.71
2022-12-24T02:59:43.109Z,11.72
2022-12-24T03:00:42.910Z,11.60
2022-12-24T03:01:43.003Z,11.67
2022-12-24T03:02:42.773Z,11.69
2022-12-24T03:03:42.642Z,11.67
2022-12-24T03:04:42.631Z,11.65
2022-12-24T03:05:42.498Z,11.57
2022-12-24T03:06:42.391Z,11.69
2022-12-24T03:07:42.312Z,11.69
2022-12-24T03:08:42.231Z,11.78
2022-12-24T03:09:42.149Z,11.71
2022-12-24T03:10:42.102Z,11.76
2022-12-24T03:11:41.993Z,11.69
2022-12-24T03:12:41.906Z,11.71
2022-12-24T03:13:41.828Z,11.71
2022-12-24T03:14:41.749Z,11.68
2022-12-24T03:15:41.665Z,11.68
2022-12-24T03:16:41.616Z,11.74
2022-12-24T03:17:41.504Z,11.67
2022-12-24T03:18:41.422Z,11.65
2022-12-24T03:19:41.349Z,11.64
2022-12-24T03:20:41.262Z,11.67
2022-12-24T03:21:41.198Z,11.67
2022-12-24T03:22:41.099Z,11.53
2022-12-24T03:23:41.018Z,11.61
2022-12-24T03:24:40.936Z,11.56
2022-12-24T03:25:40.856Z,11.56
2022-12-24T03:26:40.770Z,11.65
2022-12-24T03:27:40.690Z,11.54
2022-12-24T03:28:40.611Z,11.53
2022-12-24T03:29:40.529Z,11.59
2022-12-24T03:30:40.454Z,11.59
2022-12-24T03:31:40.487Z,11.54
2022-12-24T03:32:40.287Z,11.57
2022-12-24T03:33:40.204Z,11.60
2022-12-24T03:34:40.124Z,11.60
2022-12-24T03:35:40.040Z,11.54
2022-12-24T03:36:39.963Z,11.69
2022-12-24T03:37:39.902Z,11.65
2022-12-24T03:38:39.809Z,11.64
2022-12-24T03:39:39.734Z,11.67
2022-12-24T03:40:39.639Z,11.69
2022-12-24T03:41:39.559Z,11.79
2022-12-24T03:42:39.477Z,11.67
2022-12-24T03:43:39.391Z,11.75
2022-12-24T03:44:39.315Z,11.81
2022-12-24T03:45:39.497Z,11.74
2022-12-24T03:46:39.150Z,11.78
2022-12-24T03:47:39.070Z,11.75
2022-12-24T03:48:38.997Z,11.69
2022-12-24T03:49:38.912Z,11.72
2022-12-24T03:50:38.827Z,11.84
2022-12-24T03:51:38.745Z,11.81
2022-12-24T03:52:38.682Z,11.78
2022-12-24T03:53:38.606Z,11.84
2022-12-24T03:54:38.504Z,11.79
2022-12-24T03:55:38.421Z,11.78
2022-12-24T03:56:38.339Z,11.69
2022-12-24T03:57:38.255Z,11.69
2022-12-24T03:58:38.177Z,11.68
2022-12-24T03:59:38.096Z,11.61
2022-12-24T04:00:38.056Z,11.56
2022-12-24T04:01:38.061Z,11.69
2022-12-24T04:02:38.069Z,11.64
2022-12-24T04:03:37.776Z,11.67
2022-12-24T04:04:37.719Z,11.68
2022-12-24T04:05:37.614Z,11.65
2022-12-24T04:06:37.528Z,11.65
2022-12-24T04:07:37.445Z,11.64
2022-12-24T04:08:37.364Z,11.71
2022-12-24T04:09:37.304Z,11.59
2022-12-24T04:10:37.202Z,11.57
2022-12-24T04:11:37.120Z,11.57
2022-12-24T04:12:37.038Z,11.56
2022-12-24T04:13:36.971Z,11.53
2022-12-24T04:14:36.898Z,11.64
2022-12-24T04:15:36.797Z,11.69
2022-12-24T04:16:36.796Z,11.67
2022-12-24T04:17:36.665Z,11.72
2022-12-24T04:18:36.551Z,11.75
2022-12-24T04:19:36.471Z,11.71
2022-12-24T04:20:36.395Z,11.74
2022-12-24T04:21:36.320Z,11.75
2022-12-24T04:22:36.228Z,11.79
2022-12-24T04:23:36.146Z,11.76
2022-12-24T04:24:36.066Z,11.72
2022-12-24T04:25:36.004Z,11.69
2022-12-24T04:26:35.903Z,11.71
2022-12-24T04:27:35.836Z,11.78
2022-12-24T04:28:35.741Z,11.71
2022-12-24T04:29:35.664Z,11.68
2022-12-24T04:30:35.578Z,11.71
2022-12-24T04:31:35.541Z,11.74
2022-12-24T04:32:35.419Z,11.71
2022-12-24T04:33:35.363Z,11.83
2022-12-24T04:34:35.255Z,11.79
2022-12-24T04:35:35.174Z,11.78
2022-12-24T04:36:35.099Z,11.78
2022-12-24T04:37:35.012Z,11.81
2022-12-24T04:38:34.936Z,11.79
2022-12-24T04:39:34.848Z,11.83
2022-12-24T04:40:34.782Z,11.81
2022-12-24T04:41:34.716Z,11.74
2022-12-24T04:42:34.614Z,11.75
2022-12-24T04:43:34.531Z,11.67
2022-12-24T04:44:34.447Z,11.64
2022-12-24T04:45:34.435Z,11.74
2022-12-24T04:46:34.285Z,11.76
2022-12-24T04:47:34.202Z,11.67
2022-12-24T04:48:34.120Z,11.65
2022-12-24T04:49:34.051Z,11.65
2022-12-24T04:50:33.971Z,11.71
2022-12-24T04:51:33.877Z,11.78
2022-12-24T04:52:33.801Z,11.72
2022-12-24T04:53:33.728Z,11.78
2022-12-24T04:54:33.636Z,11.75
2022-12-24T04:55:33.567Z,11.71
2022-12-24T04:56:33.477Z,11.69
2022-12-24T04:57:33.419Z,11.60
2022-12-24T04:58:33.315Z,11.69
2022-12-24T04:59:33.233Z,11.69
2022-12-24T05:00:33.149Z,11.72
2022-12-24T05:01:33.298Z,11.65
2022-12-24T05:02:33.354Z,11.69
2022-12-24T05:03:32.940Z,11.61
2022-12-24T05:04:32.822Z,11.59
2022-12-24T05:05:32.749Z,11.53
2022-12-24T05:06:32.671Z,11.50
2022-12-24T05:07:32.593Z,11.46
2022-12-24T05:08:32.499Z,11.43
2022-12-24T05:09:32.431Z,11.34
2022-12-24T05:10:32.350Z,11.34
2022-12-24T05:11:32.261Z,11.39
2022-12-24T05:12:32.185Z,11.38
2022-12-24T05:13:40.680Z,11.35
2022-12-24T05:14:32.015Z,11.43
2022-12-24T05:15:31.933Z,11.38
2022-12-24T05:16:31.878Z,11.38
2022-12-24T05:17:31.782Z,11.42
2022-12-24T05:18:31.696Z,11.39
2022-12-24T05:19:31.608Z,11.41
2022-12-24T05:20:31.527Z,11.39
2022-12-24T05:21:31.446Z,11.35
2022-12-24T05:22:31.364Z,11.39
2022-12-24T05:23:31.306Z,11.41
2022-12-24T05:24:31.199Z,11.51
2022-12-24T05:25:31.125Z,11.53
2022-12-24T05:26:31.050Z,11.54
2022-12-24T05:27:30.965Z,11.56
2022-12-24T05:28:30.876Z,11.53
2022-12-24T05:29:30.813Z,11.56
2022-12-24T05:30:30.803Z,11.57
2022-12-24T05:31:30.634Z,11.56
2022-12-24T05:32:30.747Z,11.59
2022-12-24T05:33:30.471Z,11.72
2022-12-24T05:34:30.412Z,11.67
2022-12-24T05:35:30.308Z,11.71
2022-12-24T05:36:30.224Z,11.67
2022-12-24T05:37:30.156Z,11.71
2022-12-24T05:38:30.065Z,11.68
2022-12-24T05:39:29.982Z,11.69
2022-12-24T05:40:29.903Z,11.57
2022-12-24T05:41:29.830Z,11.67
2022-12-24T05:42:29.740Z,11.56
2022-12-24T05:43:29.656Z,11.53
2022-12-24T05:44:29.587Z,11.53
2022-12-24T05:45:29.514Z,11.51
2022-12-24T05:46:29.508Z,11.56
2022-12-24T05:47:29.334Z,11.57
2022-12-24T05:48:29.403Z,11.56
2022-12-24T05:49:29.179Z,11.54
2022-12-24T05:50:29.093Z,11.54
2022-12-24T05:51:29.010Z,11.51
2022-12-24T05:52:28.932Z,11.43
2022-12-24T05:53:28.858Z,11.57
2022-12-24T05:54:28.776Z,11.46
2022-12-24T05:55:28.686Z,11.41
2022-12-24T05:56:28.611Z,11.42
2022-12-24T05:57:28.526Z,11.56
2022-12-24T05:58:28.444Z,11.56
2022-12-24T05:59:28.412Z,11.59
2022-12-24T06:00:28.288Z,11.74
2022-12-24T06:01:28.296Z,11.71
2022-12-24T06:02:28.157Z,11.71
2022-12-24T06:03:28.038Z,11.61
2022-12-24T06:04:29.222Z,11.64
2022-12-24T06:05:27.876Z,11.72
2022-12-24T06:06:27.800Z,11.74
2022-12-24T06:07:27.716Z,11.68
2022-12-24T06:08:27.634Z,11.65
2022-12-24T06:09:27.562Z,11.67
2022-12-24T06:10:27.486Z,11.57
2022-12-24T06:11:27.412Z,11.53
2022-12-24T06:12:27.608Z,11.51
2022-12-24T06:13:27.225Z,11.56
2022-12-24T06:14:27.145Z,11.57
2022-12-24T06:15:27.112Z,11.56
2022-12-24T06:16:27.130Z,11.67
2022-12-24T06:17:26.967Z,11.59
2022-12-24T06:18:26.856Z,11.57
2022-12-24T06:19:26.738Z,11.60
2022-12-24T06:20:26.665Z,11.56
2022-12-24T06:21:26.575Z,11.57
2022-12-24T06:22:26.513Z,11.67
2022-12-24T06:23:26.416Z,11.61
2022-12-24T06:24:26.336Z,11.53
2022-12-24T06:25:26.252Z,11.54
2022-12-24T06:26:26.171Z,11.54
2022-12-24T06:27:26.091Z,11.51
2022-12-24T06:28:26.016Z,11.56
2022-12-24T06:29:27.439Z,11.54
2022-12-24T06:30:25.848Z,11.53
2022-12-24T06:31:25.827Z,11.59
2022-12-24T06:32:25.790Z,11.57
2022-12-24T06:33:25.623Z,11.51
2022-12-24T06:34:25.525Z,11.47
2022-12-24T06:35:25.467Z,11.56
2022-12-24T06:36:25.357Z,11.59
2022-12-24T06:37:25.282Z,11.56
2022-12-24T06:38:25.198Z,11.56
2022-12-24T06:39:25.119Z,11.57
2022-12-24T06:40:25.037Z,11.57
2022-12-24T06:41:24.968Z,11.56
2022-12-24T06:42:24.969Z,11.64
2022-12-24T06:43:24.798Z,11.69
2022-12-24T06:44:24.713Z,11.65
2022-12-24T06:45:24.644Z,11.65
2022-12-24T06:46:24.612Z,11.68
2022-12-24T06:47:24.723Z,11.54
2022-12-24T06:48:24.388Z,11.57
2022-12-24T06:49:24.326Z,11.60
2022-12-24T06:50:24.228Z,11.56
2022-12-24T06:51:24.150Z,11.61
2022-12-24T06:52:24.079Z,11.56
2022-12-24T06:53:23.984Z,11.36
2022-12-24T06:54:23.901Z,11.36
2022-12-24T06:55:23.823Z,11.35
2022-12-24T06:56:23.744Z,11.38
2022-12-24T06:57:23.810Z,11.34
2022-12-24T06:58:23.579Z,11.31
2022-12-24T06:59:23.499Z,11.31
2022-12-24T07:00:23.419Z,11.28
2022-12-24T07:01:23.437Z,11.34
2022-12-24T07:02:23.379Z,11.31
2022-12-24T07:03:23.560Z,11.38
2022-12-24T07:04:23.175Z,11.38
2022-12-24T07:05:23.032Z,11.42
2022-12-24T07:06:22.929Z,11.38
2022-12-24T07:07:22.859Z,11.46
2022-12-24T07:08:22.771Z,11.41
2022-12-24T07:09:22.695Z,11.36
2022-12-24T07:10:22.603Z,11.39
2022-12-24T07:11:22.649Z,11.35
2022-12-24T07:12:22.451Z,11.32
2022-12-24T07:13:22.569Z,11.28
2022-12-24T07:14:22.282Z,11.31
2022-12-24T07:15:22.212Z,11.32
2022-12-24T07:16:22.292Z,11.34
2022-12-24T07:17:22.213Z,11.39
2022-12-24T07:18:21.955Z,11.43
2022-12-24T07:19:21.879Z,11.56
2022-12-24T07:20:21.792Z,11.59
2022-12-24T07:21:21.743Z,11.60
2022-12-24T07:22:21.634Z,11.50
2022-12-24T07:23:21.740Z,11.54
2022-12-24T07:24:21.468Z,11.57
2022-12-24T07:25:21.399Z,11.53
2022-12-24T07:26:21.313Z,11.57
2022-12-24T07:27:21.375Z,11.50
2022-12-24T07:28:27.613Z,11.47
2022-12-24T07:29:21.097Z,11.34
2022-12-24T07:30:20.978Z,11.51
2022-12-24T07:31:21.002Z,11.59
2022-12-24T07:32:21.022Z,11.57
2022-12-24T07:33:20.738Z,11.56
2022-12-24T07:34:20.653Z,11.61
2022-12-24T07:35:20.571Z,11.56
2022-12-24T07:36:20.491Z,11.59
2022-12-24T07:37:20.445Z,11.65
2022-12-24T07:38:20.327Z,11.64
2022-12-24T07:39:20.253Z,11.59
2022-12-24T07:40:20.165Z,11.57
2022-12-24T07:41:20.091Z,11.60
2022-12-24T07:42:20.002Z,11.56
2022-12-24T07:43:19.924Z,11.47
2022-12-24T07:44:19.841Z,11.47
2022-12-24T07:45:19.762Z,11.61
2022-12-24T07:46:19.697Z,11.57
2022-12-24T07:47:19.598Z,11.50
2022-12-24T07:48:19.523Z,11.46
2022-12-24T07:49:19.437Z,11.56
2022-12-24T07:50:19.361Z,11.56
2022-12-24T07:51:19.286Z,11.67
2022-12-24T07:52:19.193Z,11.57
2022-12-24T07:53:19.183Z,11.57
2022-12-24T07:54:19.032Z,11.61
2022-12-24T07:55:18.951Z,11.69
2022-12-24T07:56:18.872Z,11.65
2022-12-24T07:57:18.788Z,11.65
2022-12-24T07:58:18.737Z,11.60
2022-12-24T07:59:18.627Z,11.51
2022-12-24T08:00:18.545Z,11.56
2022-12-24T08:01:18.521Z,11.57
2022-12-24T08:02:18.938Z,11.51
2022-12-24T08:03:18.418Z,11.56
2022-12-24T08:04:18.222Z,11.56
2022-12-24T08:05:18.140Z,11.49
2022-12-24T08:06:18.059Z,11.50
2022-12-24T08:07:17.980Z,11.57
2022-12-24T08:08:17.898Z,11.46
2022-12-24T08:09:17.842Z,11.51
2022-12-24T08:10:17.750Z,11.59
2022-12-24T08:11:17.658Z,11.56
2022-12-24T08:12:17.574Z,11.57
2022-12-24T08:13:17.495Z,11.56
2022-12-24T08:14:17.413Z,11.60
2022-12-24T08:15:17.338Z,11.56
2022-12-24T08:16:17.318Z,11.59
2022-12-24T08:17:17.172Z,11.50
2022-12-24T08:18:17.091Z,11.41
2022-12-24T08:19:17.009Z,11.46
2022-12-24T08:20:16.927Z,11.51
2022-12-24T08:21:16.849Z,11.50
2022-12-24T08:22:16.771Z,11.53
2022-12-24T08:23:16.692Z,11.54
2022-12-24T08:24:16.614Z,11.57
2022-12-24T08:25:16.549Z,11.56
2022-12-24T08:26:16.474Z,11.60
2022-12-24T08:27:16.365Z,11.57
2022-12-24T08:28:16.282Z,11.54
2022-12-24T08:29:16.208Z,11.56
2022-12-24T08:30:20.850Z,11.57
2022-12-24T08:31:16.206Z,11.54
2022-12-24T08:32:15.961Z,11.64
2022-12-24T08:33:15.886Z,11.67
2022-12-24T08:34:15.803Z,11.71
2022-12-24T08:35:15.727Z,11.74
2022-12-24T08:36:15.639Z,11.65
2022-12-24T08:37:15.563Z,11.72
2022-12-24T08:38:15.479Z,11.74
2022-12-24T08:39:15.400Z,11.79
2022-12-24T08:40:15.317Z,11.74
2022-12-24T08:41:15.259Z,11.79
2022-12-24T08:42:15.221Z,11.75
2022-12-24T08:43:15.121Z,11.78
2022-12-24T08:44:14.999Z,11.83
2022-12-24T08:45:14.918Z,11.69
2022-12-24T08:46:14.929Z,11.76
2022-12-24T08:47:14.766Z,11.86
2022-12-24T08:48:14.676Z,11.78
2022-12-24T08:49:14.597Z,11.76
2022-12-24T08:50:14.515Z,11.78
2022-12-24T08:51:14.437Z,11.81
2022-12-24T08:52:14.349Z,11.75
2022-12-24T08:53:14.301Z,11.86
2022-12-24T08:54:14.204Z,11.76
2022-12-24T08:55:14.115Z,11.84
2022-12-24T08:56:14.046Z,11.81
2022-12-24T08:57:13.969Z,11.90
2022-12-24T08:58:13.901Z,11.89
2022-12-24T08:59:13.792Z,12.00
2022-12-24T09:00:13.711Z,11.93
2022-12-24T09:01:13.812Z,11.98
2022-12-24T09:02:13.740Z,11.95
2022-12-24T09:03:14.395Z,12.00
2022-12-24T09:04:13.401Z,12.03
2022-12-24T09:05:13.309Z,12.09
2022-12-24T09:06:13.225Z,12.02
2022-12-24T09:07:13.150Z,12.06
2022-12-24T09:08:13.068Z,12.00
2022-12-24T09:09:12.989Z,12.09
2022-12-24T09:10:12.912Z,11.97
2022-12-24T09:11:12.832Z,12.09
2022-12-24T09:12:12.745Z,12.03
2022-12-24T09:13:12.691Z,12.02
2022-12-24T09:14:12.596Z,11.95
2022-12-24T09:15:12.510Z,11.97
2022-12-24T09:16:12.462Z,12.03
2022-12-24T09:17:12.353Z,11.97
2022-12-24T09:18:12.269Z,11.95
2022-12-24T09:19:12.189Z,11.98
2022-12-24T09:20:12.112Z,11.97
2022-12-24T09:21:12.030Z,11.97
2022-12-24T09:22:11.947Z,12.03
2022-12-24T09:23:11.876Z,11.98
2022-12-24T09:24:11.786Z,12.02
2022-12-24T09:25:11.707Z,12.11
2022-12-24T09:26:11.775Z,12.09
2022-12-24T09:27:11.545Z,12.16
2022-12-24T09:28:11.466Z,12.18
2022-12-24T09:29:11.419Z,12.19
2022-12-24T09:30:11.313Z,12.06
2022-12-24T09:31:11.227Z,12.23
2022-12-24T09:32:11.183Z,12.23
2022-12-24T09:33:11.072Z,12.18
2022-12-24T09:34:10.985Z,12.06
2022-12-24T09:35:10.904Z,12.19
2022-12-24T09:36:10.843Z,12.12
2022-12-24T09:37:10.745Z,12.12
2022-12-24T09:38:10.670Z,12.24
2022-12-24T09:39:10.588Z,12.18
2022-12-24T09:40:10.503Z,12.23
2022-12-24T09:41:10.430Z,12.36
2022-12-24T09:42:10.351Z,12.39
2022-12-24T09:43:10.266Z,12.41
2022-12-24T09:44:10.533Z,12.45
2022-12-24T09:45:10.127Z,12.49
2022-12-24T09:46:10.121Z,12.49
2022-12-24T09:47:10.332Z,12.61
2022-12-24T09:48:09.868Z,12.59
2022-12-24T09:49:09.819Z,12.60
2022-12-24T09:50:09.714Z,12.66
2022-12-24T09:51:09.643Z,12.64
2022-12-24T09:52:09.579Z,12.71
2022-12-24T09:53:09.469Z,12.61
2022-12-24T09:54:09.390Z,12.61
2022-12-24T09:55:09.314Z,12.56
2022-12-24T09:56:09.644Z,12.45
2022-12-24T09:57:09.156Z,12.51
2022-12-24T09:58:09.073Z,12.52
2022-12-24T09:59:08.995Z,12.49
2022-12-24T10:00:08.914Z,12.46
2022-12-24T10:01:08.951Z,12.49
2022-12-24T10:02:08.892Z,12.51
2022-12-24T10:03:08.707Z,12.42
2022-12-24T10:04:08.602Z,12.48
2022-12-24T10:05:08.518Z,12.42
2022-12-24T10:06:08.441Z,12.42
2022-12-24T10:07:08.410Z,12.37
2022-12-24T10:08:08.278Z,12.41
2022-12-24T10:09:08.196Z,12.37
2022-12-24T10:10:08.168Z,12.36
2022-12-24T10:11:08.049Z,12.39
2022-12-24T10:12:07.962Z,12.42
2022-12-24T10:13:07.886Z,12.46
2022-12-24T10:14:07.804Z,12.42
2022-12-24T10:15:07.731Z,12.37
2022-12-24T10:16:07.736Z,12.48
2022-12-24T10:17:07.679Z,12.46
2022-12-24T10:18:07.484Z,12.45
2022-12-24T10:19:07.411Z,12.42
2022-12-24T10:20:07.327Z,12.48
2022-12-24T10:21:07.248Z,12.53
2022-12-24T10:22:07.167Z,12.48
2022-12-24T10:23:07.086Z,12.52
2022-12-24T10:24:07.019Z,12.46
2022-12-24T10:25:06.942Z,12.52
2022-12-24T10:26:06.851Z,12.51
2022-12-24T10:27:06.781Z,12.49
2022-12-24T10:28:06.694Z,12.52
2022-12-24T10:29:06.612Z,12.49
2022-12-24T10:30:10.430Z,12.51
2022-12-24T10:31:06.545Z,12.49
2022-12-24T10:32:06.373Z,12.49
2022-12-24T10:33:06.309Z,12.44
2022-12-24T10:34:06.210Z,12.51
2022-12-24T10:35:06.131Z,12.51
2022-12-24T10:36:11.902Z,12.49
2022-12-24T10:37:05.985Z,12.44
2022-12-24T10:38:05.892Z,12.41
2022-12-24T10:39:05.814Z,12.42
2022-12-24T10:40:05.744Z,12.46
2022-12-24T10:41:05.652Z,12.53
2022-12-24T10:42:05.587Z,12.46
2022-12-24T10:43:05.495Z,12.46
2022-12-24T10:44:05.412Z,12.44
2022-12-24T10:45:05.365Z,12.42
2022-12-24T10:46:05.333Z,12.41
2022-12-24T10:47:05.183Z,12.45
2022-12-24T10:48:05.121Z,12.48
2022-12-24T10:49:05.033Z,12.55
2022-12-24T10:50:04.943Z,12.53
2022-12-24T10:51:04.856Z,12.64
2022-12-24T10:52:04.778Z,12.61
2022-12-24T10:53:04.715Z,12.59
2022-12-24T10:54:04.615Z,12.63
2022-12-24T10:55:04.537Z,12.63
2022-12-24T10:56:04.456Z,12.66
2022-12-24T10:57:04.380Z,12.60
2022-12-24T10:58:04.299Z,12.74
2022-12-24T10:59:04.228Z,12.79
2022-12-24T11:00:04.145Z,12.70
2022-12-24T11:01:04.287Z,12.67
2022-12-24T11:02:04.333Z,12.56
2022-12-24T11:03:04.121Z,12.64
2022-12-24T11:04:03.836Z,12.61
2022-12-24T11:05:03.790Z,12.64
2022-12-24T11:06:03.666Z,12.59
2022-12-24T11:07:03.590Z,12.61
2022-12-24T11:08:03.503Z,12.60
2022-12-24T11:09:03.433Z,12.70
2022-12-24T11:10:03.352Z,12.61
2022-12-24T11:11:03.287Z,12.53
2022-12-24T11:12:08.600Z,12.56
2022-12-24T11:13:35.596Z,12.64
2022-12-24T11:14:03.037Z,12.66
2022-12-24T11:15:02.960Z,12.55
2022-12-24T11:16:02.981Z,12.52
2022-12-24T11:17:02.797Z,12.51
2022-12-24T11:18:02.716Z,12.52
2022-12-24T11:19:02.652Z,12.46
2022-12-24T11:20:02.556Z,12.52
2022-12-24T11:21:02.499Z,12.56
2022-12-24T11:22:02.400Z,12.60
2022-12-24T11:23:02.324Z,12.59
2022-12-24T11:24:02.240Z,12.59
2022-12-24T11:25:02.164Z,12.64
2022-12-24T11:26:02.093Z,12.59
2022-12-24T11:27:02.002Z,12.66
2022-12-24T11:28:01.928Z,12.70
2022-12-24T11:29:01.844Z,12.73
2022-12-24T11:30:05.151Z,12.60
2022-12-24T11:31:01.773Z,12.59
2022-12-24T11:32:01.613Z,12.60
2022-12-24T11:33:01.528Z,12.52
2022-12-24T11:34:01.452Z,12.71
2022-12-24T11:35:01.369Z,12.60
2022-12-24T11:36:01.303Z,12.67
2022-12-24T11:37:01.233Z,12.74
2022-12-24T11:38:01.137Z,12.70
2022-12-24T11:39:01.056Z,12.69
2022-12-24T11:40:00.973Z,12.70
2022-12-24T11:41:00.898Z,12.73
2022-12-24T11:42:00.828Z,12.89
2022-12-24T11:43:00.738Z,12.88
2022-12-24T11:44:00.657Z,12.70
2022-12-24T11:45:00.588Z,12.81
2022-12-24T11:46:00.580Z,12.79
2022-12-24T11:47:00.423Z,12.84
2022-12-24T11:48:00.346Z,12.69
2022-12-24T11:49:04.335Z,12.66
2022-12-24T11:50:17.789Z,12.73
2022-12-24T11:51:00.139Z,12.73
2022-12-24T11:52:00.038Z,12.81
2022-12-24T11:52:59.971Z,12.78
2022-12-24T11:53:59.872Z,12.82
2022-12-24T11:54:59.887Z,12.82
2022-12-24T11:55:59.857Z,12.81
2022-12-24T11:56:59.630Z,12.84
2022-12-24T11:57:59.566Z,12.85
2022-12-24T11:58:59.473Z,12.82
2022-12-24T11:59:59.391Z,12.99
2022-12-24T12:00:59.327Z,12.88
2022-12-24T12:01:59.292Z,13.02
2022-12-24T12:02:59.212Z,12.96
2022-12-24T12:03:59.150Z,13.04
2022-12-24T12:04:59.000Z,13.04
2022-12-24T12:05:58.921Z,13.06
2022-12-24T12:06:58.840Z,13.06
2022-12-24T12:07:58.762Z,13.09
2022-12-24T12:08:58.707Z,13.10
2022-12-24T12:09:58.612Z,13.10
2022-12-24T12:10:58.527Z,13.14
2022-12-24T12:11:58.467Z,13.04
2022-12-24T12:12:58.368Z,13.07
2022-12-24T12:13:58.291Z,13.09
2022-12-24T12:14:58.231Z,13.07
2022-12-24T12:15:58.155Z,13.03
2022-12-24T12:16:58.053Z,13.06
2022-12-24T12:17:57.987Z,13.00
2022-12-24T12:18:57.899Z,13.04
2022-12-24T12:19:57.925Z,13.02
2022-12-24T12:20:57.739Z,12.97
2022-12-24T12:21:57.663Z,12.97
2022-12-24T12:22:57.615Z,13.09
2022-12-24T12:23:57.509Z,12.99
2022-12-24T12:24:57.445Z,12.96
2022-12-24T12:25:57.375Z,13.00
2022-12-24T12:26:57.270Z,13.00
2022-12-24T12:27:57.340Z,12.97
2022-12-24T12:28:57.112Z,12.99
2022-12-24T12:29:57.036Z,13.02
2022-12-24T12:30:56.999Z,13.00
2022-12-24T12:31:56.978Z,12.88
2022-12-24T12:32:56.871Z,12.92
2022-12-24T12:33:56.738Z,12.89
2022-12-24T12:34:56.645Z,12.82
2022-12-24T12:35:56.713Z,12.92
2022-12-24T12:36:56.485Z,12.91
2022-12-24T12:37:56.406Z,12.81
2022-12-24T12:38:56.352Z,12.85
2022-12-24T12:39:56.260Z,12.79
2022-12-24T12:40:56.183Z,12.73
2022-12-24T12:41:56.086Z,12.67
2022-12-24T12:42:56.007Z,12.69
2022-12-24T12:43:55.931Z,12.73
2022-12-24T12:44:55.866Z,12.64
2022-12-24T12:45:55.921Z,12.66
2022-12-24T12:46:55.723Z,12.55
2022-12-24T12:47:55.616Z,12.61
2022-12-24T12:49:02.054Z,12.56
2022-12-24T12:49:55.510Z,12.55
2022-12-24T12:50:55.373Z,12.46
2022-12-24T12:51:55.295Z,12.44